Time;durP1;ratioP1;P1;durP2;ratioP2;P2;SDS_P1;SDS_P2;PMS_P1;PMS_P2;Temp;Humidity;BMP_temperature;BMP_pressure;BME280_temperature;BME280_humidity;BME280_pressure;Samples;Min_cycle;Max_cycle;Signal;HPM_P1;HPM_P2
2022/04/21 00:00:33;;;;;;;5.37;2.70;;;7.30;99.90;;;;;;5010282;28;20199;-82
2022/04/21 00:02:59;;;;;;;4.27;2.40;;;7.30;99.90;;;;;;5027575;28;20191;-82
2022/04/21 00:05:24;;;;;;;2.30;2.10;;;7.40;99.90;;;;;;5011999;28;20193;-79
2022/04/21 00:07:50;;;;;;;2.77;2.43;;;7.30;99.90;;;;;;5014537;28;20278;-82
2022/04/21 00:10:17;;;;;;;3.87;2.50;;;7.20;99.90;;;;;;5032584;28;20991;-79
2022/04/21 00:12:43;;;;;;;3.23;2.10;;;7.20;99.90;;;;;;5032310;28;20261;-80
2022/04/21 00:15:09;;;;;;;2.70;2.50;;;7.20;99.90;;;;;;5030930;28;20191;-81
2022/04/21 00:17:35;;;;;;;2.40;2.20;;;7.10;99.90;;;;;;5011559;28;20183;-81
2022/04/21 00:20:01;;;;;;;3.53;2.17;;;7.10;99.90;;;;;;5011755;28;20199;-81
2022/04/21 00:25:11;;;;;;;3.23;2.17;;;6.90;99.90;;;;;;5029522;28;20186;-80
2022/04/21 00:27:42;;;;;;;2.60;2.10;;;7.00;99.90;;;;;;5010752;28;20194;-80
2022/04/21 00:30:08;;;;;;;2.70;2.07;;;7.00;99.90;;;;;;5029254;28;20206;-81
2022/04/21 00:32:34;;;;;;;3.03;2.10;;;7.00;99.90;;;;;;5011342;28;20214;-81
2022/04/21 00:35:00;;;;;;;4.23;2.10;;;6.90;99.90;;;;;;5026808;28;20191;-79
2022/04/21 00:37:26;;;;;;;3.10;2.53;;;6.90;99.90;;;;;;5010878;28;20195;-81
2022/04/21 00:39:52;;;;;;;4.50;2.37;;;6.90;99.90;;;;;;5011688;28;20210;-79
2022/04/21 00:42:17;;;;;;;3.43;2.47;;;6.90;99.90;;;;;;5011359;28;20634;-80
2022/04/21 00:44:43;;;;;;;7.33;2.30;;;6.90;99.90;;;;;;5011027;28;20182;-80
2022/04/21 00:47:10;;;;;;;3.33;2.07;;;6.90;99.90;;;;;;5011021;28;20213;-79
2022/04/21 00:49:36;;;;;;;3.07;2.00;;;6.90;99.90;;;;;;5028611;28;20183;-81
2022/04/21 00:52:02;;;;;;;5.10;2.07;;;6.80;99.90;;;;;;5011683;28;20183;-80
2022/04/21 00:54:32;;;;;;;2.83;2.10;;;6.70;99.90;;;;;;5012041;28;20272;-80
2022/04/21 00:57:00;;;;;;;3.33;2.23;;;6.70;99.90;;;;;;5012105;28;20194;-81
2022/04/21 00:59:26;;;;;;;3.30;2.33;;;6.70;99.90;;;;;;5012077;28;20175;-79
2022/04/21 01:04:39;;;;;;;2.77;2.33;;;6.60;99.90;;;;;;5030329;28;20190;-80
2022/04/21 01:07:08;;;;;;;3.03;2.10;;;6.50;99.90;;;;;;5030517;28;20220;-80
2022/04/21 01:09:43;;;;;;;3.60;2.20;;;6.50;99.90;;;;;;5030250;28;20670;-81
2022/04/21 01:12:09;;;;;;;3.53;2.57;;;6.60;99.90;;;;;;5029985;28;21097;-82
2022/04/21 01:14:38;;;;;;;3.57;2.07;;;6.50;99.90;;;;;;5030417;28;20190;-81
2022/04/21 01:17:09;;;;;;;3.00;1.87;;;6.50;99.90;;;;;;5009352;28;20652;-80
2022/04/21 01:19:35;;;;;;;3.67;2.20;;;6.40;99.90;;;;;;5010803;28;20213;-80
2022/04/21 01:22:01;;;;;;;2.87;2.23;;;6.40;99.90;;;;;;5011605;28;20734;-82
2022/04/21 01:24:26;;;;;;;2.63;2.10;;;6.30;99.90;;;;;;5011002;28;20203;-81
2022/04/21 01:26:54;;;;;;;4.23;2.37;;;6.30;99.90;;;;;;5010657;28;20191;-82
2022/04/21 01:29:19;;;;;;;2.30;2.00;;;6.30;99.90;;;;;;5028938;28;20183;-81
2022/04/21 01:32:38;;;;;;;2.87;2.00;;;6.30;99.90;;;;;;5011468;28;20696;-81
2022/04/21 01:35:07;;;;;;;3.17;1.93;;;6.20;99.90;;;;;;5011207;28;20810;-80
2022/04/21 01:43:03;;;;;;;3.63;2.17;;;5.90;99.90;;;;;;5029428;28;20751;-81
2022/04/21 01:45:29;;;;;;;2.70;2.43;;;5.80;99.90;;;;;;5011166;28;20183;-82
2022/04/21 01:47:56;;;;;;;4.23;2.47;;;5.70;99.90;;;;;;5028819;28;20229;-79
2022/04/21 01:50:22;;;;;;;2.97;2.30;;;5.70;99.90;;;;;;5027494;28;20684;-81
2022/04/21 01:52:48;;;;;;;2.60;2.40;;;5.60;99.90;;;;;;5028445;28;20203;-80
2022/04/21 01:55:13;;;;;;;2.17;1.97;;;5.60;99.90;;;;;;5009567;28;20182;-79
2022/04/21 01:57:39;;;;;;;2.40;1.93;;;5.60;99.90;;;;;;5027430;28;20179;-79
2022/04/21 02:00:05;;;;;;;4.00;2.33;;;5.60;99.90;;;;;;5010240;28;20252;-80
2022/04/21 02:02:32;;;;;;;3.97;2.47;;;5.60;99.90;;;;;;5009397;28;20182;-80
2022/04/21 02:04:59;;;;;;;2.20;2.00;;;5.60;99.90;;;;;;5009190;28;20187;-80
2022/04/21 02:07:26;;;;;;;2.37;2.00;;;5.70;99.90;;;;;;5026367;28;20192;-80
2022/04/21 02:09:52;;;;;;;2.70;2.07;;;5.70;99.90;;;;;;5026636;28;20285;-81
2022/04/21 02:12:18;;;;;;;3.00;1.90;;;5.70;99.90;;;;;;5008821;28;20279;-79
2022/04/21 02:14:44;;;;;;;4.07;2.40;;;5.70;99.90;;;;;;5009360;28;20185;-80
2022/04/21 02:17:09;;;;;;;3.93;2.10;;;6.00;99.90;;;;;;5026354;28;20261;-79
2022/04/21 02:19:36;;;;;;;2.30;2.10;;;6.00;99.90;;;;;;5026779;28;20232;-79
2022/04/21 02:22:01;;;;;;;2.73;2.30;;;6.00;99.90;;;;;;5008084;28;20183;-79
2022/04/21 02:24:27;;;;;;;2.13;1.93;;;5.80;99.90;;;;;;5026208;28;20233;-81
2022/04/21 02:26:53;;;;;;;3.37;2.43;;;5.90;99.90;;;;;;5008643;28;20187;-81
2022/04/21 02:29:18;;;;;;;2.20;2.00;;;5.90;99.90;;;;;;5008021;28;20661;-79
2022/04/21 02:31:44;;;;;;;2.33;2.10;;;6.00;99.90;;;;;;5008351;28;20203;-79
2022/04/21 02:34:09;;;;;;;2.63;2.20;;;6.00;99.90;;;;;;5008415;28;20210;-81
2022/04/21 02:36:35;;;;;;;3.30;2.03;;;6.00;99.90;;;;;;5025785;28;20198;-79
2022/04/21 02:39:00;;;;;;;2.50;2.30;;;6.10;99.90;;;;;;5007025;28;20186;-79
2022/04/21 02:41:26;;;;;;;2.20;2.00;;;6.20;99.90;;;;;;5008377;28;20191;-79
2022/04/21 02:43:52;;;;;;;3.17;2.20;;;6.30;99.90;;;;;;5007930;28;20657;-78
2022/04/21 02:46:18;;;;;;;2.50;2.00;;;6.20;99.90;;;;;;5008362;28;20214;-79
2022/04/21 02:48:43;;;;;;;2.73;2.20;;;6.10;99.90;;;;;;5007574;28;20240;-80
2022/04/21 02:51:10;;;;;;;2.60;1.97;;;6.20;99.90;;;;;;5025651;28;20202;-80
2022/04/21 02:59:09;;;;;;;3.10;2.23;;;6.40;99.90;;;;;;5023781;28;20205;-79
2022/04/21 03:01:34;;;;;;;3.40;2.27;;;6.30;99.90;;;;;;5025137;28;20202;-79
2022/04/21 03:04:01;;;;;;;3.00;1.93;;;6.40;99.90;;;;;;5007142;28;20213;-81
2022/04/21 03:06:26;;;;;;;3.10;2.50;;;6.40;99.90;;;;;;5007332;28;20645;-81
2022/04/21 03:08:52;;;;;;;2.30;2.10;;;6.30;99.90;;;;;;5006701;28;20198;-79
2022/04/21 03:11:17;;;;;;;3.00;2.10;;;6.30;99.90;;;;;;5024815;28;20676;-80
2022/04/21 03:13:43;;;;;;;3.57;2.37;;;6.30;99.90;;;;;;5024773;28;20238;-81
2022/04/21 03:16:08;;;;;;;2.33;2.13;;;6.50;99.90;;;;;;5024725;28;20174;-81
2022/04/21 03:18:34;;;;;;;3.77;2.60;;;6.40;99.90;;;;;;5005549;28;20237;-79
2022/04/21 03:26:28;;;;;;;3.00;2.30;;;6.40;99.90;;;;;;5025581;28;20687;-80
2022/04/21 03:28:53;;;;;;;3.93;2.60;;;6.30;99.90;;;;;;5024656;28;20187;-81
2022/04/21 03:31:19;;;;;;;3.27;2.27;;;6.30;99.90;;;;;;5025238;28;20203;-81
2022/04/21 03:33:46;;;;;;;3.13;2.30;;;6.20;99.90;;;;;;5025563;28;20249;-80
2022/04/21 03:36:12;;;;;;;2.87;2.30;;;6.20;99.90;;;;;;5025039;28;20194;-80
2022/04/21 03:38:39;;;;;;;3.27;2.23;;;6.20;99.90;;;;;;5007881;28;20202;-79
2022/04/21 03:41:05;;;;;;;3.00;2.10;;;6.20;99.90;;;;;;5028714;28;20256;-80
2022/04/21 03:43:31;;;;;;;2.20;2.00;;;6.30;99.90;;;;;;5012618;28;20209;-81
2022/04/21 03:45:56;;;;;;;2.83;2.23;;;6.40;99.90;;;;;;5012095;28;20182;-80
2022/04/21 03:48:23;;;;;;;3.03;2.50;;;6.50;99.90;;;;;;5011529;28;20266;-81
2022/04/21 03:50:49;;;;;;;3.37;2.43;;;6.40;99.90;;;;;;5012181;28;20218;-80
2022/04/21 03:53:14;;;;;;;2.77;2.50;;;6.50;99.90;;;;;;5011941;28;20210;-78
2022/04/21 03:55:40;;;;;;;2.97;2.57;;;6.60;99.90;;;;;;5029938;28;20191;-81
2022/04/21 03:58:05;;;;;;;4.63;2.93;;;6.60;99.90;;;;;;5008612;28;20175;-81
2022/04/21 04:00:31;;;;;;;3.20;2.57;;;6.50;99.90;;;;;;5007151;28;20198;-81
2022/04/21 04:02:56;;;;;;;2.27;2.00;;;6.40;99.90;;;;;;5007787;28;20187;-81
2022/04/21 04:05:22;;;;;;;3.20;2.40;;;6.50;99.90;;;;;;5009314;28;20229;-83
2022/04/21 04:13:16;;;;;;;3.40;2.50;;;6.50;99.90;;;;;;5026185;28;20900;-81
2022/04/21 04:15:42;;;;;;;3.40;2.50;;;6.50;99.90;;;;;;5008847;28;20187;-81
2022/04/21 04:18:08;;;;;;;3.23;2.40;;;6.50;99.90;;;;;;5026518;28;20179;-81
2022/04/21 04:20:34;;;;;;;3.30;2.43;;;6.50;99.90;;;;;;5008770;28;20198;-82
2022/04/21 04:22:59;;;;;;;2.93;2.47;;;6.50;99.90;;;;;;5008554;28;20215;-82
2022/04/21 04:25:25;;;;;;;3.63;2.47;;;6.50;99.90;;;;;;5026339;28;20248;-81
2022/04/21 04:27:50;;;;;;;2.97;2.43;;;6.50;99.90;;;;;;5008064;28;20653;-81
2022/04/21 04:30:16;;;;;;;3.07;2.70;;;6.50;99.90;;;;;;5026186;28;20640;-81
2022/04/21 04:32:41;;;;;;;3.80;2.47;;;6.60;99.90;;;;;;5008172;28;20250;-81
2022/04/21 04:35:07;;;;;;;3.57;2.70;;;6.70;99.90;;;;;;5008525;28;20175;-81
2022/04/21 04:37:33;;;;;;;2.73;2.33;;;6.70;99.90;;;;;;5007719;28;20739;-82
2022/04/21 04:39:59;;;;;;;4.23;2.80;;;6.90;99.90;;;;;;5008196;28;20260;-83
2022/04/21 04:42:25;;;;;;;3.50;2.60;;;6.80;99.90;;;;;;5008040;28;20565;-81
2022/04/21 04:47:37;;;;;;;2.90;2.40;;;6.90;99.90;;;;;;5026687;28;20197;-82
2022/04/21 04:50:04;;;;;;;3.53;2.97;;;6.90;99.90;;;;;;5026198;28;20234;-81
2022/04/21 04:52:29;;;;;;;3.80;2.60;;;6.90;99.90;;;;;;5007732;28;20326;-83
2022/04/21 04:54:56;;;;;;;2.97;2.40;;;6.90;99.90;;;;;;5025990;28;20606;-82
2022/04/21 04:57:22;;;;;;;3.87;2.37;;;6.80;99.90;;;;;;5007627;28;20644;-81
2022/04/21 04:59:47;;;;;;;4.20;2.57;;;6.80;99.90;;;;;;5007981;28;20217;-81
2022/04/21 05:02:14;;;;;;;4.63;2.63;;;6.90;99.90;;;;;;5007584;28;20179;-81
2022/04/21 05:04:39;;;;;;;4.07;2.63;;;6.90;99.90;;;;;;5007530;28;20183;-81
2022/04/21 05:07:05;;;;;;;4.30;2.73;;;6.90;99.90;;;;;;5007190;28;20187;-81
2022/04/21 05:09:31;;;;;;;5.20;3.03;;;7.00;99.90;;;;;;5007170;28;20570;-81
2022/04/21 05:11:57;;;;;;;3.13;2.47;;;6.90;99.90;;;;;;5007088;28;20213;-81
2022/04/21 05:14:24;;;;;;;2.83;2.47;;;7.00;99.90;;;;;;5007662;28;20187;-82
2022/04/21 05:16:50;;;;;;;3.47;2.67;;;7.00;99.90;;;;;;5004139;28;20198;-81
2022/04/21 05:19:19;;;;;;;4.07;2.40;;;6.90;99.90;;;;;;5025051;28;20562;-80
2022/04/21 05:21:46;;;;;;;5.63;2.93;;;7.00;99.90;;;;;;5006519;28;20352;-80
2022/04/21 05:24:13;;;;;;;4.87;2.60;;;7.10;99.90;;;;;;5024865;28;20537;-81
2022/04/21 05:26:42;;;;;;;3.10;2.43;;;7.10;99.90;;;;;;5006296;28;20660;-80
2022/04/21 05:32:00;;;;;;;2.73;2.20;;;7.30;99.90;;;;;;5024475;28;20261;-81
2022/04/21 05:34:27;;;;;;;3.40;2.60;;;7.30;99.90;;;;;;5006824;28;20274;-81
2022/04/21 05:36:54;;;;;;;4.17;2.43;;;7.30;99.90;;;;;;5024157;28;20229;-81
2022/04/21 05:39:20;;;;;;;5.63;2.70;;;7.30;99.90;;;;;;5006698;28;20187;-81
2022/04/21 05:41:47;;;;;;;4.40;2.70;;;7.30;99.90;;;;;;5006159;28;20215;-80
2022/04/21 05:44:13;;;;;;;3.57;2.47;;;7.40;99.90;;;;;;5024047;28;20190;-81
2022/04/21 05:46:39;;;;;;;3.57;2.93;;;7.40;99.90;;;;;;5005682;28;20665;-81
2022/04/21 05:49:05;;;;;;;4.23;3.00;;;7.40;99.90;;;;;;5006598;28;20212;-81
2022/04/21 05:51:31;;;;;;;4.10;2.80;;;7.40;99.90;;;;;;5023914;28;20344;-81
2022/04/21 05:53:58;;;;;;;4.10;2.80;;;7.40;99.90;;;;;;5006645;28;20828;-81
2022/04/21 05:56:25;;;;;;;2.97;2.60;;;7.40;99.90;;;;;;5005799;28;20683;-81
2022/04/21 05:58:51;;;;;;;3.67;3.10;;;7.50;99.90;;;;;;5005903;28;20187;-81
2022/04/21 06:01:16;;;;;;;4.60;2.60;;;7.50;99.90;;;;;;5006088;28;20202;-81
2022/04/21 06:03:42;;;;;;;4.23;2.97;;;7.60;99.90;;;;;;5005063;28;20190;-81
2022/04/21 06:06:09;;;;;;;3.37;2.80;;;7.60;99.90;;;;;;5022922;28;20233;-81
2022/04/21 06:08:36;;;;;;;3.33;2.70;;;7.60;99.90;;;;;;5005518;28;20186;-80
2022/04/21 06:11:02;;;;;;;2.90;2.60;;;7.70;99.90;;;;;;5023651;28;20699;-81
2022/04/21 06:13:30;;;;;;;4.03;2.67;;;7.70;99.90;;;;;;5005729;28;20215;-80
2022/04/21 06:15:55;;;;;;;5.07;2.57;;;7.70;99.90;;;;;;5006093;28;20186;-81
2022/04/21 06:18:23;;;;;;;3.53;2.73;;;7.80;99.90;;;;;;5006134;28;20544;-81
2022/04/21 06:20:49;;;;;;;5.90;3.00;;;7.70;99.90;;;;;;5006837;28;20199;-82
2022/04/21 06:23:15;;;;;;;3.17;2.80;;;7.80;99.90;;;;;;5005888;28;20183;-81
2022/04/21 06:25:42;;;;;;;2.97;2.67;;;7.80;99.90;;;;;;5005880;28;20553;-81
2022/04/21 06:28:08;;;;;;;2.87;2.57;;;7.90;99.90;;;;;;5005543;28;20225;-81
2022/04/21 06:30:33;;;;;;;3.33;2.87;;;8.10;99.90;;;;;;5023086;28;20235;-81
2022/04/21 06:32:59;;;;;;;4.47;2.63;;;8.00;99.90;;;;;;5005834;28;20259;-81
2022/04/21 06:35:26;;;;;;;3.67;2.50;;;7.90;99.90;;;;;;5005086;28;20189;-81
2022/04/21 06:37:53;;;;;;;4.43;2.80;;;8.10;99.90;;;;;;5005459;28;20210;-81
2022/04/21 06:40:18;;;;;;;4.60;3.13;;;8.20;99.90;;;;;;5005268;28;20280;-81
2022/04/21 06:42:44;;;;;;;3.60;2.63;;;8.20;99.90;;;;;;5022916;28;20191;-81
2022/04/21 06:48:08;;;;;;;3.67;2.80;;;8.30;99.90;;;;;;5023127;28;20298;-80
2022/04/21 06:50:36;;;;;;;2.70;2.50;;;8.40;99.90;;;;;;5005256;28;20688;-80
2022/04/21 06:53:03;;;;;;;3.53;2.80;;;8.40;99.90;;;;;;5005250;28;20218;-80
2022/04/21 06:55:29;;;;;;;3.87;2.60;;;8.30;99.90;;;;;;5022850;28;20186;-80
2022/04/21 06:57:55;;;;;;;3.50;2.57;;;8.10;99.90;;;;;;5004630;28;20190;-80
2022/04/21 07:00:22;;;;;;;3.20;2.60;;;8.00;99.90;;;;;;5005064;28;20282;-80
2022/04/21 07:02:51;;;;;;;2.60;2.30;;;8.10;99.90;;;;;;5022768;28;20712;-80
2022/04/21 07:05:17;;;;;;;3.70;2.70;;;8.30;99.90;;;;;;5004934;28;20186;-81
2022/04/21 07:07:44;;;;;;;4.20;2.50;;;8.40;99.90;;;;;;5022528;28;20219;-81
2022/04/21 07:10:10;;;;;;;4.00;2.90;;;8.50;99.90;;;;;;5004850;28;20222;-81
2022/04/21 07:12:36;;;;;;;4.57;2.90;;;8.60;99.90;;;;;;5005652;28;20218;-81
2022/04/21 07:15:05;;;;;;;3.27;2.77;;;8.70;99.90;;;;;;5005279;28;20317;-81
2022/04/21 07:17:31;;;;;;;4.90;2.70;;;8.80;99.90;;;;;;5004648;28;20675;-81
2022/04/21 07:19:58;;;;;;;3.23;2.90;;;9.10;99.90;;;;;;5005188;28;20301;-81
2022/04/21 07:22:27;;;;;;;4.00;3.20;;;9.30;99.90;;;;;;5022690;28;20178;-81
2022/04/21 07:24:56;;;;;;;7.33;2.33;;;9.60;99.90;;;;;;5022820;28;20194;-81
2022/04/21 07:27:22;;;;;;;3.27;2.73;;;9.80;99.90;;;;;;5004534;28;20228;-81
2022/04/21 07:29:49;;;;;;;3.23;2.53;;;10.00;99.90;;;;;;5004906;28;20216;-81
2022/04/21 07:32:15;;;;;;;4.60;2.80;;;10.10;99.90;;;;;;5004372;28;20183;-80
2022/04/21 07:34:41;;;;;;;3.90;2.57;;;10.20;99.90;;;;;;5022741;28;20179;-81
2022/04/21 07:37:08;;;;;;;2.97;2.57;;;10.00;99.90;;;;;;5004271;28;20579;-81
2022/04/21 07:39:35;;;;;;;3.93;2.80;;;9.80;99.90;;;;;;5004922;28;20282;-81
2022/04/21 07:42:00;;;;;;;3.13;2.83;;;9.70;99.90;;;;;;4988884;28;20206;-81
2022/04/21 07:44:30;;;;;;;2.73;2.43;;;9.80;99.90;;;;;;5022922;28;20633;-81
2022/04/21 07:46:55;;;;;;;3.67;2.77;;;9.80;99.90;;;;;;5004613;28;20269;-80
2022/04/21 07:54:51;;;;;;;4.17;2.80;;;10.00;99.90;;;;;;5023463;28;20210;-81
2022/04/21 07:57:17;;;;;;;5.00;2.93;;;10.20;99.90;;;;;;5003773;28;20186;-81
2022/04/21 07:59:42;;;;;;;3.37;2.80;;;10.60;99.90;;;;;;5005088;28;20607;-81
2022/04/21 08:02:08;;;;;;;3.83;2.43;;;10.50;99.90;;;;;;5004115;28;20185;-81
2022/04/21 08:04:34;;;;;;;5.30;2.90;;;10.40;99.90;;;;;;5004988;28;20207;-84
2022/04/21 08:07:00;;;;;;;5.33;2.80;;;10.30;99.90;;;;;;5004171;28;20212;-80
2022/04/21 08:09:26;;;;;;;4.03;2.33;;;10.40;99.90;;;;;;5005002;28;20647;-81
2022/04/21 08:11:52;;;;;;;3.87;3.17;;;10.80;99.90;;;;;;5021779;28;20727;-81
2022/04/21 08:14:17;;;;;;;4.30;2.60;;;11.10;99.90;;;;;;5022527;28;20214;-80
2022/04/21 08:16:43;;;;;;;4.47;2.53;;;11.10;99.90;;;;;;5004051;28;20226;-80
2022/04/21 08:19:10;;;;;;;3.20;2.67;;;11.00;99.90;;;;;;5004322;28;20178;-80
2022/04/21 08:21:37;;;;;;;6.07;2.77;;;11.00;99.90;;;;;;5021984;28;20553;-80
2022/04/21 08:32:37;;;;;;;3.77;2.57;;;12.50;99.90;;;;;;5025668;28;20190;-80
2022/04/21 08:35:06;;;;;;;4.20;2.67;;;12.30;99.90;;;;;;5008066;28;20179;-80
2022/04/21 08:37:35;;;;;;;3.92;2.80;;;11.80;99.90;;;;;;5007260;28;20190;-80
2022/04/21 08:40:01;;;;;;;4.23;2.87;;;11.70;99.90;;;;;;5007653;28;20203;-80
2022/04/21 08:42:30;;;;;;;5.80;3.10;;;11.50;99.90;;;;;;5025380;28;20864;-80
2022/04/21 08:44:58;;;;;;;2.70;2.50;;;11.40;99.90;;;;;;5025947;28;20466;-80
2022/04/21 08:47:27;;;;;;;4.57;2.77;;;11.20;99.90;;;;;;5025445;28;20260;-79
2022/04/21 08:49:59;;;;;;;4.70;3.03;;;11.50;99.90;;;;;;5007918;28;20202;-80
2022/04/21 08:52:25;;;;;;;3.85;2.90;;;12.10;99.90;;;;;;5006852;28;20313;-80
2022/04/21 08:54:51;;;;;;;4.22;2.83;;;12.30;99.90;;;;;;5025442;28;20358;-80
2022/04/21 08:57:16;;;;;;;4.22;2.45;;;12.50;99.90;;;;;;5006777;28;20180;-80
2022/04/21 08:59:42;;;;;;;4.47;2.75;;;12.40;99.90;;;;;;5007730;28;20186;-80
2022/04/21 09:02:08;;;;;;;2.92;2.63;;;12.10;99.90;;;;;;5006982;28;20187;-80
2022/04/21 09:04:34;;;;;;;5.40;2.65;;;12.00;99.90;;;;;;5007612;28;20182;-80
2022/04/21 09:07:44;;;;;;;5.60;2.65;;;12.10;99.90;;;;;;5006370;28;20558;-80
2022/04/21 09:10:11;;;;;;;3.10;2.45;;;12.40;99.90;;;;;;4946682;28;20205;-82
2022/04/21 09:12:40;;;;;;;3.65;2.60;;;12.70;99.90;;;;;;4998947;28;20244;-82
2022/04/21 09:15:33;;;;;;;4.60;3.30;;;13.10;99.90;;;;;;5007092;28;20232;-81
2022/04/21 09:18:01;;;;;;;4.65;2.80;;;13.00;99.90;;;;;;5004486;28;20195;-82
2022/04/21 09:20:36;;;;;;;6.45;2.97;;;12.70;99.90;;;;;;5007007;28;20204;-82
2022/04/21 09:23:05;;;;;;;3.55;3.00;;;12.40;99.90;;;;;;5006870;28;20186;-81
2022/04/21 09:25:40;;;;;;;4.68;2.90;;;12.20;99.90;;;;;;5007123;28;20205;-82
2022/04/21 09:28:06;;;;;;;3.60;3.00;;;12.40;99.90;;;;;;5006645;28;20186;-83
2022/04/21 09:30:32;;;;;;;5.63;3.50;;;12.40;99.90;;;;;;5007090;28;20724;-82
2022/04/21 09:33:00;;;;;;;4.63;3.05;;;12.60;99.90;;;;;;5024711;28;20245;-82
2022/04/21 09:35:28;;;;;;;3.45;2.90;;;12.60;99.90;;;;;;5006074;28;20594;-82
2022/04/21 09:37:56;;;;;;;4.78;3.42;;;12.70;99.90;;;;;;5022803;28;20193;-82
2022/04/21 09:40:32;;;;;;;4.40;3.10;;;13.00;99.90;;;;;;5006647;28;20249;-82
2022/04/21 09:43:02;;;;;;;5.60;2.85;;;13.00;99.90;;;;;;5006615;28;20187;-82
2022/04/21 09:48:28;;;;;;;3.58;3.08;;;13.00;99.90;;;;;;5024366;28;20189;-82
2022/04/21 09:50:55;;;;;;;3.75;2.65;;;12.80;99.90;;;;;;5006518;28;20234;-82
2022/04/21 09:53:23;;;;;;;4.65;3.22;;;12.70;99.90;;;;;;5024242;28;20590;-82
2022/04/21 09:56:05;;;;;;;5.43;2.75;;;13.00;99.90;;;;;;5006440;28;20224;-82
2022/04/21 09:58:36;;;;;;;4.55;3.00;;;13.30;99.90;;;;;;5005774;28;20183;-81
2022/04/21 10:01:03;;;;;;;4.60;2.80;;;13.40;99.90;;;;;;5024080;28;20401;-82
2022/04/21 10:03:33;;;;;;;4.22;2.70;;;13.60;99.90;;;;;;5024132;28;20273;-82
2022/04/21 10:05:59;;;;;;;5.68;2.90;;;13.60;99.90;;;;;;5024326;28;20575;-83
2022/04/21 10:08:25;;;;;;;3.85;3.10;;;13.40;99.90;;;;;;5005827;28;20197;-82
2022/04/21 10:10:53;;;;;;;4.70;3.22;;;13.00;99.90;;;;;;5005979;28;20725;-83
2022/04/21 10:13:19;;;;;;;4.05;3.08;;;12.50;99.90;;;;;;5006122;28;20256;-81
2022/04/21 10:15:44;;;;;;;3.88;3.10;;;11.90;99.90;;;;;;5006133;28;20186;-81
2022/04/21 10:18:15;;;;;;;4.07;3.00;;;11.70;99.90;;;;;;5005688;28;20603;-81
2022/04/21 10:20:42;;;;;;;4.80;3.43;;;11.50;99.90;;;;;;5006648;28;20293;-81
2022/04/21 10:23:28;;;;;;;3.20;2.90;;;11.40;99.90;;;;;;5006982;28;20189;-83
2022/04/21 10:26:04;;;;;;;3.92;3.20;;;11.70;99.90;;;;;;5008145;28;20187;-84
2022/04/21 10:28:37;;;;;;;5.68;3.50;;;12.00;99.90;;;;;;5005831;28;20208;-84
2022/04/21 10:31:32;;;;;;;6.55;2.95;;;12.00;99.90;;;;;;5002009;28;20207;-84
2022/04/21 10:34:04;;;;;;;5.80;3.50;;;12.10;99.90;;;;;;5021236;28;20301;-84
2022/04/21 10:36:47;;;;;;;4.32;3.53;;;11.90;99.90;;;;;;5009970;28;20195;-85
2022/04/21 10:39:18;;;;;;;5.68;3.33;;;12.00;99.90;;;;;;5007192;28;20185;-83
2022/04/21 10:41:45;;;;;;;6.47;3.25;;;12.20;99.90;;;;;;5006953;28;20210;-83
2022/04/21 10:44:26;;;;;;;4.22;3.28;;;12.30;99.90;;;;;;5008349;28;20249;-81
2022/04/21 10:47:36;;;;;;;5.53;3.50;;;12.20;99.90;;;;;;5010078;28;20661;-84
2022/04/21 10:50:10;;;;;;;3.58;3.00;;;12.60;99.90;;;;;;5006454;28;20206;-84
2022/04/21 10:57:48;;;;;;;6.47;3.30;;;12.90;99.90;;;;;;5039629;28;20286;-84
2022/04/21 11:00:34;;;;;;;4.22;2.70;;;13.00;99.90;;;;;;5021937;28;20209;-83
2022/04/21 11:03:01;;;;;;;4.40;3.30;;;13.00;99.90;;;;;;5022254;28;20205;-83
2022/04/21 11:05:31;;;;;;;5.32;3.15;;;13.00;99.90;;;;;;5042231;28;20191;-82
2022/04/21 11:07:59;;;;;;;5.55;3.00;;;13.10;99.90;;;;;;5023385;28;20198;-81
2022/04/21 11:10:39;;;;;;;3.92;3.22;;;13.10;99.90;;;;;;5025428;28;20225;-82
2022/04/21 11:13:06;;;;;;;3.72;2.90;;;13.10;99.90;;;;;;5022546;28;20233;-79
2022/04/21 11:15:39;;;;;;;3.60;2.67;;;13.20;99.90;;;;;;5022031;28;20271;-82
2022/04/21 11:18:17;;;;;;;5.70;2.63;;;13.40;99.90;;;;;;5013619;28;20623;-83
2022/04/21 11:20:48;;;;;;;3.67;2.63;;;13.60;99.90;;;;;;5013279;28;20205;-83
2022/04/21 11:23:26;;;;;;;4.28;2.60;;;13.30;99.90;;;;;;5029912;28;20282;-84
2022/04/21 11:26:01;;;;;;;3.97;2.90;;;13.50;99.90;;;;;;5011958;28;20182;-82
2022/04/21 11:28:26;;;;;;;6.15;3.90;;;13.50;99.90;;;;;;5027996;28;20181;-83
2022/04/21 11:30:57;;;;;;;5.45;2.85;;;13.60;99.90;;;;;;5012371;28;20799;-82
2022/04/21 11:33:22;;;;;;;4.68;2.90;;;13.70;99.90;;;;;;5011283;28;20237;-82
2022/04/21 11:35:48;;;;;;;5.15;3.17;;;13.60;99.90;;;;;;5012447;28;20207;-83
2022/04/21 11:38:14;;;;;;;4.13;3.00;;;13.80;99.90;;;;;;5028109;28;20260;-83
2022/04/21 11:40:40;;;;;;;3.17;2.85;;;13.60;99.90;;;;;;5011275;28;20553;-83
2022/04/21 11:43:17;;;;;;;4.65;3.00;;;13.50;99.90;;;;;;5008544;28;20191;-82
2022/04/21 11:45:55;;;;;;;4.60;2.70;;;13.60;99.90;;;;;;5008614;28;20187;-81
2022/04/21 11:48:21;;;;;;;3.63;2.90;;;13.60;99.90;;;;;;5011553;28;20187;-81
2022/04/21 11:50:47;;;;;;;6.95;3.42;;;13.80;99.90;;;;;;5012674;28;20222;-81
2022/04/21 11:53:15;;;;;;;3.05;2.75;;;13.40;99.90;;;;;;5007705;28;20203;-81
2022/04/21 11:55:41;;;;;;;5.88;2.78;;;13.80;99.90;;;;;;5007766;28;20190;-79
2022/04/21 11:58:07;;;;;;;6.63;3.50;;;14.10;99.90;;;;;;5028197;28;20180;-81
2022/04/21 12:08:46;;;;;;;3.33;2.70;;;13.80;99.90;;;;;;5030868;28;20252;-79
2022/04/21 12:11:15;;;;;;;3.95;3.17;;;13.70;99.90;;;;;;5010936;28;21257;-80
2022/04/21 12:13:42;;;;;;;5.10;3.40;;;13.70;99.90;;;;;;5029857;28;20207;-81
2022/04/21 12:16:37;;;;;;;5.35;4.07;;;13.50;99.90;;;;;;5029253;28;20210;-81
2022/04/21 12:19:19;;;;;;;7.70;3.50;;;13.70;99.90;;;;;;5011727;28;20191;-83
2022/04/21 12:22:01;;;;;;;6.60;3.45;;;13.60;99.90;;;;;;5030470;28;20495;-81
2022/04/21 12:24:29;;;;;;;6.32;3.05;;;13.10;99.90;;;;;;5010066;28;20196;-82
2022/04/21 12:26:55;;;;;;;5.07;3.28;;;13.10;99.90;;;;;;5008745;28;20186;-81
2022/04/21 12:29:22;;;;;;;6.97;3.38;;;13.20;99.90;;;;;;5027923;28;20261;-82
2022/04/21 12:31:50;;;;;;;5.55;3.03;;;13.30;99.90;;;;;;5025627;28;20735;-80
2022/04/21 12:34:28;;;;;;;4.53;2.95;;;13.40;99.90;;;;;;5008722;28;20218;-81
2022/04/21 12:37:02;;;;;;;5.55;3.40;;;13.40;99.90;;;;;;5007078;28;20676;-82
2022/04/21 12:39:29;;;;;;;6.00;3.88;;;13.30;99.90;;;;;;5010121;28;20193;-81
2022/04/21 12:41:56;;;;;;;10.25;8.90;;;13.30;99.90;;;;;;5008525;28;20210;-81
2022/04/21 12:44:24;;;;;;;8.00;5.68;;;13.00;99.90;;;;;;5025428;28;20333;-84
2022/04/21 12:47:02;;;;;;;4.55;3.97;;;13.10;99.90;;;;;;5027199;28;20217;-83
2022/04/21 12:50:05;;;;;;;5.88;3.92;;;13.30;99.90;;;;;;5011158;28;20229;-83
2022/04/21 12:52:49;;;;;;;4.95;3.58;;;13.10;99.90;;;;;;5010671;28;20190;-83
2022/04/21 12:55:19;;;;;;;5.72;4.30;;;12.80;99.90;;;;;;5011269;28;20175;-83
2022/04/21 12:57:57;;;;;;;5.00;3.13;;;12.90;99.90;;;;;;5010186;28;20186;-83
2022/04/21 13:00:23;;;;;;;7.63;4.88;;;13.00;99.90;;;;;;5009883;28;20221;-84
2022/04/21 13:02:48;;;;;;;6.57;3.53;;;13.00;99.90;;;;;;5025943;28;20187;-82
2022/04/21 13:05:14;;;;;;;7.95;4.50;;;13.30;99.90;;;;;;5024046;28;20599;-82
2022/04/21 13:07:40;;;;;;;5.72;4.43;;;13.50;99.90;;;;;;5009334;28;20187;-81
2022/04/21 13:10:06;;;;;;;9.13;5.65;;;13.40;99.90;;;;;;5009960;28;20206;-82
2022/04/21 13:12:33;;;;;;;5.28;4.78;;;13.50;99.90;;;;;;5009844;28;20179;-83
2022/04/21 13:15:00;;;;;;;6.03;4.22;;;13.60;99.90;;;;;;5009435;28;20183;-83
2022/04/21 13:17:26;;;;;;;6.15;5.25;;;13.70;99.90;;;;;;5028408;28;20210;-83
2022/04/21 13:19:51;;;;;;;7.00;4.65;;;13.50;99.90;;;;;;5008649;28;20223;-83
2022/04/21 13:22:17;;;;;;;9.48;6.95;;;13.60;99.90;;;;;;5008501;28;20672;-82
2022/04/21 13:24:43;;;;;;;5.35;4.85;;;13.60;99.90;;;;;;5024538;28;20194;-82
2022/04/21 13:27:08;;;;;;;10.23;7.32;;;13.30;99.90;;;;;;5006802;28;21325;-81
2022/04/21 13:29:34;;;;;;;8.52;5.80;;;13.30;99.90;;;;;;5022185;28;20657;-82
2022/04/21 13:34:45;;;;;;;7.38;4.93;;;13.20;99.90;;;;;;5022556;28;20249;-82
2022/04/21 13:37:11;;;;;;;5.65;4.68;;;13.20;99.90;;;;;;5022002;28;20190;-83
2022/04/21 13:39:39;;;;;;;7.25;6.38;;;13.50;99.90;;;;;;5021394;28;20190;-83
2022/04/21 13:42:06;;;;;;;8.82;7.47;;;13.30;99.90;;;;;;5006176;28;20190;-83
2022/04/21 13:44:32;;;;;;;5.97;4.22;;;13.50;99.90;;;;;;5006922;28;20251;-82
2022/04/21 13:46:58;;;;;;;4.50;3.35;;;13.30;99.90;;;;;;5007006;28;20294;-82
2022/04/21 13:49:25;;;;;;;5.85;4.68;;;13.30;99.90;;;;;;5007835;28;20225;-82
2022/04/21 13:51:51;;;;;;;7.53;5.53;;;13.20;99.90;;;;;;5027067;28;20294;-81
2022/04/21 13:54:18;;;;;;;4.93;3.97;;;13.00;99.90;;;;;;5008998;28;20203;-83
2022/04/21 13:56:43;;;;;;;9.00;6.97;;;12.80;99.90;;;;;;5026293;28;20214;-82
2022/04/21 13:59:13;;;;;;;21.55;13.30;;;12.70;99.90;;;;;;5007782;28;20581;-82
2022/04/21 14:01:39;;;;;;;6.72;4.30;;;12.60;99.90;;;;;;5008143;28;20293;-82
2022/04/21 14:04:05;;;;;;;13.15;9.93;;;12.40;99.90;;;;;;5008802;28;20285;-81
2022/04/21 14:06:30;;;;;;;13.82;11.00;;;12.30;99.90;;;;;;5006905;28;20651;-83